sensor_id;sensor_type;location;lat;lon;timestamp;pressure;altitude;pressure_sealevel;temperature;humidity
62126;BME280;48112;53.282;6.150;2022-12-18T00:00:56;102868.88;;;14.14;62.25
62126;BME280;48112;53.282;6.150;2022-12-18T00:01:58;102869.66;;;14.15;60.86
62126;BME280;48112;53.282;6.150;2022-12-18T00:03:01;102857.19;;;14.14;62.79
62126;BME280;48112;53.282;6.150;2022-12-18T00:04:05;102855.28;;;14.14;63.18
62126;BME280;48112;53.282;6.150;2022-12-18T00:05:07;102854.47;;;14.14;63.47
62126;BME280;48112;53.282;6.150;2022-12-18T00:06:10;102852.88;;;14.13;63.26
62126;BME280;48112;53.282;6.150;2022-12-18T00:07:13;102847.75;;;14.11;62.25
62126;BME280;48112;53.282;6.150;2022-12-18T00:08:18;102863.25;;;14.11;60.82
62126;BME280;48112;53.282;6.150;2022-12-18T00:09:20;102852.38;;;14.11;61.41
62126;BME280;48112;53.282;6.150;2022-12-18T00:10:25;102842.31;;;14.11;63.55
62126;BME280;48112;53.282;6.150;2022-12-18T00:11:29;102840.72;;;14.10;62.74
62126;BME280;48112;53.282;6.150;2022-12-18T00:12:31;102844.56;;;14.09;61.62
62126;BME280;48112;53.282;6.150;2022-12-18T00:13:33;102842.63;;;14.10;62.29
62126;BME280;48112;53.282;6.150;2022-12-18T00:14:36;102850.31;;;14.08;60.98
62126;BME280;48112;53.282;6.150;2022-12-18T00:15:38;102842.94;;;14.08;61.14
62126;BME280;48112;53.282;6.150;2022-12-18T00:16:43;102839.44;;;14.08;62.62
62126;BME280;48112;53.282;6.150;2022-12-18T00:17:44;102836.72;;;14.08;63.28
62126;BME280;48112;53.282;6.150;2022-12-18T00:18:47;102854.94;;;14.07;60.88
62126;BME280;48112;53.282;6.150;2022-12-18T00:19:49;102867.69;;;14.07;59.02
62126;BME280;48112;53.282;6.150;2022-12-18T00:20:51;102849.81;;;14.06;63.02
62126;BME280;48112;53.282;6.150;2022-12-18T00:21:53;102854.13;;;14.07;63.37
62126;BME280;48112;53.282;6.150;2022-12-18T00:22:56;102858.78;;;14.06;63.49
62126;BME280;48112;53.282;6.150;2022-12-18T00:23:57;102865.31;;;14.05;62.01
62126;BME280;48112;53.282;6.150;2022-12-18T00:25:00;102868.81;;;14.06;63.06
62126;BME280;48112;53.282;6.150;2022-12-18T00:26:03;102862.28;;;14.07;64.12
62126;BME280;48112;53.282;6.150;2022-12-18T00:27:07;102859.88;;;14.05;63.70
62126;BME280;48112;53.282;6.150;2022-12-18T00:28:10;102857.47;;;14.04;64.23
62126;BME280;48112;53.282;6.150;2022-12-18T00:29:12;102860.19;;;14.04;64.07
62126;BME280;48112;53.282;6.150;2022-12-18T00:30:17;102854.75;;;14.04;64.19
62126;BME280;48112;53.282;6.150;2022-12-18T00:31:19;102856.69;;;14.03;64.30
62126;BME280;48112;53.282;6.150;2022-12-18T00:32:22;102857.47;;;14.04;63.83
62126;BME280;48112;53.282;6.150;2022-12-18T00:33:24;102861.31;;;14.03;64.24
62126;BME280;48112;53.282;6.150;2022-12-18T00:34:26;102856.97;;;14.02;64.43
62126;BME280;48112;53.282;6.150;2022-12-18T00:35:29;102860.50;;;14.02;64.43
62126;BME280;48112;53.282;6.150;2022-12-18T00:36:31;102863.53;;;14.01;63.20
62126;BME280;48112;53.282;6.150;2022-12-18T00:37:34;102865.44;;;14.00;62.28
62126;BME280;48112;53.282;6.150;2022-12-18T00:38:36;102860.31;;;13.99;62.29
62126;BME280;48112;53.282;6.150;2022-12-18T00:39:39;102863.03;;;13.99;62.52
62126;BME280;48112;53.282;6.150;2022-12-18T00:40:40;102854.09;;;13.98;63.85
62126;BME280;48112;53.282;6.150;2022-12-18T00:41:43;102854.88;;;13.99;63.79
62126;BME280;48112;53.282;6.150;2022-12-18T00:43:04;102856.00;;;13.98;63.85
62126;BME280;48112;53.282;6.150;2022-12-18T00:44:10;102858.72;;;13.98;63.87
62126;BME280;48112;53.282;6.150;2022-12-18T00:45:11;102858.72;;;13.98;63.92
62126;BME280;48112;53.282;6.150;2022-12-18T00:46:14;102857.13;;;13.97;63.46
62126;BME280;48112;53.282;6.150;2022-12-18T00:47:16;102862.56;;;13.97;62.78
62126;BME280;48112;53.282;6.150;2022-12-18T00:48:19;102871.81;;;13.96;61.23
62126;BME280;48112;53.282;6.150;2022-12-18T00:49:20;102864.47;;;13.96;63.02
62126;BME280;48112;53.282;6.150;2022-12-18T00:50:24;102854.75;;;13.95;63.99
62126;BME280;48112;53.282;6.150;2022-12-18T00:51:26;102866.38;;;13.96;62.08
62126;BME280;48112;53.282;6.150;2022-12-18T00:52:29;102858.56;;;13.94;62.09
62126;BME280;48112;53.282;6.150;2022-12-18T00:53:31;102871.34;;;13.94;61.54
62126;BME280;48112;53.282;6.150;2022-12-18T00:54:33;102863.50;;;13.92;63.11
62126;BME280;48112;53.282;6.150;2022-12-18T00:55:35;102868.63;;;13.94;63.71
62126;BME280;48112;53.282;6.150;2022-12-18T00:56:39;102860.78;;;13.92;64.12
62126;BME280;48112;53.282;6.150;2022-12-18T00:57:50;102856.16;;;13.93;63.87
62126;BME280;48112;53.282;6.150;2022-12-18T00:58:54;102854.56;;;13.92;64.56
62126;BME280;48112;53.282;6.150;2022-12-18T00:59:56;102870.84;;;13.92;62.73
62126;BME280;48112;53.282;6.150;2022-12-18T01:00:58;102860.00;;;13.92;62.57
62126;BME280;48112;53.282;6.150;2022-12-18T01:02:00;102861.91;;;13.91;63.45
62126;BME280;48112;53.282;6.150;2022-12-18T01:03:03;102851.84;;;13.92;63.85
62126;BME280;48112;53.282;6.150;2022-12-18T01:04:05;102855.66;;;13.91;64.57
62126;BME280;48112;53.282;6.150;2022-12-18T01:05:08;102858.38;;;13.91;64.59
62126;BME280;48112;53.282;6.150;2022-12-18T01:06:10;102863.81;;;13.91;64.28
62126;BME280;48112;53.282;6.150;2022-12-18T01:07:13;102861.41;;;13.89;63.72
62126;BME280;48112;53.282;6.150;2022-12-18T01:08:15;102873.06;;;13.90;64.05
62126;BME280;48112;53.282;6.150;2022-12-18T01:09:18;102871.47;;;13.89;63.22
62126;BME280;48112;53.282;6.150;2022-12-18T01:10:19;102867.97;;;13.88;63.63
62126;BME280;48112;53.282;6.150;2022-12-18T01:11:22;102871.47;;;13.89;63.58
62126;BME280;48112;53.282;6.150;2022-12-18T01:12:24;102875.28;;;13.88;62.65
62126;BME280;48112;53.282;6.150;2022-12-18T01:13:26;102872.56;;;13.88;63.67
62126;BME280;48112;53.282;6.150;2022-12-18T01:14:29;102868.28;;;13.87;64.69
62126;BME280;48112;53.282;6.150;2022-12-18T01:15:33;102873.69;;;13.87;65.01
62126;BME280;48112;53.282;6.150;2022-12-18T01:16:34;102875.59;;;13.86;63.62
62126;BME280;48112;53.282;6.150;2022-12-18T01:17:38;102878.31;;;13.86;64.85
62126;BME280;48112;53.282;6.150;2022-12-18T01:18:40;102882.16;;;13.85;64.69
62126;BME280;48112;53.282;6.150;2022-12-18T01:19:43;102880.25;;;13.86;64.02
62126;BME280;48112;53.282;6.150;2022-12-18T01:20:44;102880.25;;;13.86;64.59
62126;BME280;48112;53.282;6.150;2022-12-18T01:21:47;102888.72;;;13.84;64.04
62126;BME280;48112;53.282;6.150;2022-12-18T01:22:48;102886.00;;;13.84;64.62
62126;BME280;48112;53.282;6.150;2022-12-18T01:23:52;102890.63;;;13.84;64.61
62126;BME280;48112;53.282;6.150;2022-12-18T01:24:54;102904.50;;;13.82;63.97
62126;BME280;48112;53.282;6.150;2022-12-18T01:25:57;102892.84;;;13.82;64.01
62126;BME280;48112;53.282;6.150;2022-12-18T01:26:59;102892.03;;;13.81;64.26
62126;BME280;48112;53.282;6.150;2022-12-18T01:28:02;102898.28;;;13.82;64.51
62126;BME280;48112;53.282;6.150;2022-12-18T01:29:06;102910.25;;;13.81;63.92
62126;BME280;48112;53.282;6.150;2022-12-18T01:30:10;102892.34;;;13.80;64.69
62126;BME280;48112;53.282;6.150;2022-12-18T01:31:13;102899.72;;;13.79;64.27
62126;BME280;48112;53.282;6.150;2022-12-18T01:32:15;102898.91;;;13.79;63.51
62126;BME280;48112;53.282;6.150;2022-12-18T01:33:17;102891.56;;;13.79;64.46
62126;BME280;48112;53.282;6.150;2022-12-18T01:34:20;102897.00;;;13.79;63.93
62126;BME280;48112;53.282;6.150;2022-12-18T01:35:21;102897.31;;;13.78;64.11
62126;BME280;48112;53.282;6.150;2022-12-18T01:36:24;102902.72;;;13.78;61.62
62126;BME280;48112;53.282;6.150;2022-12-18T01:37:26;102907.34;;;13.77;61.01
62126;BME280;48112;53.282;6.150;2022-12-18T01:38:29;102905.44;;;13.78;61.36
62126;BME280;48112;53.282;6.150;2022-12-18T01:39:30;102897.94;;;13.75;61.30
62126;BME280;48112;53.282;6.150;2022-12-18T01:40:33;102905.75;;;13.76;60.05
62126;BME280;48112;53.282;6.150;2022-12-18T01:41:35;102897.94;;;13.75;62.50
62126;BME280;48112;53.282;6.150;2022-12-18T01:42:52;102898.72;;;13.75;62.53
62126;BME280;48112;53.282;6.150;2022-12-18T01:43:55;102898.72;;;13.75;63.42
62126;BME280;48112;53.282;6.150;2022-12-18T01:45:03;102897.13;;;13.74;64.09
62126;BME280;48112;53.282;6.150;2022-12-18T01:46:07;102903.38;;;13.75;63.69
62126;BME280;48112;53.282;6.150;2022-12-18T01:47:10;102896.81;;;13.76;64.78
62126;BME280;48112;53.282;6.150;2022-12-18T01:48:16;102899.53;;;13.76;65.14
62126;BME280;48112;53.282;6.150;2022-12-18T01:49:18;102906.06;;;13.75;64.40
62126;BME280;48112;53.282;6.150;2022-12-18T01:50:21;102903.38;;;13.75;64.16
62126;BME280;48112;53.282;6.150;2022-12-18T01:51:24;102910.69;;;13.74;64.56
62126;BME280;48112;53.282;6.150;2022-12-18T01:52:28;102903.38;;;13.75;64.13
62126;BME280;48112;53.282;6.150;2022-12-18T01:53:30;102901.75;;;13.74;63.78
62126;BME280;48112;53.282;6.150;2022-12-18T01:54:33;102899.03;;;13.74;64.83
62126;BME280;48112;53.282;6.150;2022-12-18T01:55:36;102903.66;;;13.73;64.39
62126;BME280;48112;53.282;6.150;2022-12-18T01:56:39;102917.22;;;13.73;63.60
62126;BME280;48112;53.282;6.150;2022-12-18T01:57:41;102911.78;;;13.73;63.41
62126;BME280;48112;53.282;6.150;2022-12-18T01:58:46;102918.34;;;13.72;64.08
62126;BME280;48112;53.282;6.150;2022-12-18T01:59:52;102922.97;;;13.72;64.45
62126;BME280;48112;53.282;6.150;2022-12-18T02:00:55;102914.81;;;13.72;64.67
62126;BME280;48112;53.282;6.150;2022-12-18T02:01:58;102920.25;;;13.72;64.00
62126;BME280;48112;53.282;6.150;2022-12-18T02:03:03;102924.91;;;13.71;63.31
62126;BME280;48112;53.282;6.150;2022-12-18T02:04:18;102913.22;;;13.71;64.23
62126;BME280;48112;53.282;6.150;2022-12-18T02:05:23;102914.81;;;13.72;64.50
62126;BME280;48112;53.282;6.150;2022-12-18T02:06:29;102914.34;;;13.70;65.16
62126;BME280;48112;53.282;6.150;2022-12-18T02:07:37;102914.34;;;13.70;63.65
62126;BME280;48112;53.282;6.150;2022-12-18T02:08:48;102906.19;;;13.70;64.66
62126;BME280;48112;53.282;6.150;2022-12-18T02:09:54;102904.56;;;13.69;64.78
62126;BME280;48112;53.282;6.150;2022-12-18T02:11:00;102903.81;;;13.68;64.52
62126;BME280;48112;53.282;6.150;2022-12-18T02:12:08;102905.69;;;13.68;63.74
62126;BME280;48112;53.282;6.150;2022-12-18T02:13:17;102905.69;;;13.68;64.94
62126;BME280;48112;53.282;6.150;2022-12-18T02:14:23;102897.56;;;13.68;64.73
62126;BME280;48112;53.282;6.150;2022-12-18T02:15:31;102907.59;;;13.67;63.64
62126;BME280;48112;53.282;6.150;2022-12-18T02:16:38;102897.88;;;13.66;63.21
62126;BME280;48112;53.282;6.150;2022-12-18T02:17:46;102903.31;;;13.66;64.28
62126;BME280;48112;53.282;6.150;2022-12-18T02:18:53;102899.78;;;13.66;63.44
62126;BME280;48112;53.282;6.150;2022-12-18T02:20:01;102907.91;;;13.66;61.98
62126;BME280;48112;53.282;6.150;2022-12-18T02:21:09;102915.28;;;13.65;61.07
62126;BME280;48112;53.282;6.150;2022-12-18T02:22:18;102907.13;;;13.65;61.87
62126;BME280;48112;53.282;6.150;2022-12-18T02:23:24;102901.72;;;13.65;63.35
62126;BME280;48112;53.282;6.150;2022-12-18T02:24:36;102892.75;;;13.65;64.33
62126;BME280;48112;53.282;6.150;2022-12-18T02:26:04;102892.75;;;13.65;64.44
62126;BME280;48112;53.282;6.150;2022-12-18T02:27:08;102891.16;;;13.64;63.20
62126;BME280;48112;53.282;6.150;2022-12-18T02:28:12;102891.16;;;13.64;63.12
62126;BME280;48112;53.282;6.150;2022-12-18T02:29:15;102885.72;;;13.64;62.42
62126;BME280;48112;53.282;6.150;2022-12-18T02:30:19;102873.25;;;13.63;62.70
62126;BME280;48112;53.282;6.150;2022-12-18T02:31:22;102873.25;;;13.63;61.82
62126;BME280;48112;53.282;6.150;2022-12-18T02:32:26;102872.44;;;13.62;61.63
62126;BME280;48112;53.282;6.150;2022-12-18T02:33:29;102873.25;;;13.63;62.39
62126;BME280;48112;53.282;6.150;2022-12-18T02:34:33;102875.97;;;13.63;63.24
62126;BME280;48112;53.282;6.150;2022-12-18T02:35:39;102870.53;;;13.63;63.29
62126;BME280;48112;53.282;6.150;2022-12-18T02:36:42;102862.72;;;13.61;64.23
62126;BME280;48112;53.282;6.150;2022-12-18T02:37:45;102858.88;;;13.62;64.46
62126;BME280;48112;53.282;6.150;2022-12-18T02:38:49;102871.66;;;13.62;63.37
62126;BME280;48112;53.282;6.150;2022-12-18T02:39:52;102865.44;;;13.61;63.71
62126;BME280;48112;53.282;6.150;2022-12-18T02:40:56;102870.84;;;13.61;63.19
62126;BME280;48112;53.282;6.150;2022-12-18T02:41:59;102874.38;;;13.62;62.24
62126;BME280;48112;53.282;6.150;2022-12-18T02:43:06;102875.47;;;13.61;61.96
62126;BME280;48112;53.282;6.150;2022-12-18T02:44:09;102868.16;;;13.61;62.80
62126;BME280;48112;53.282;6.150;2022-12-18T02:45:12;102871.66;;;13.62;63.16
62126;BME280;48112;53.282;6.150;2022-12-18T02:46:23;102880.59;;;13.62;61.63
62126;BME280;48112;53.282;6.150;2022-12-18T02:47:29;102887.94;;;13.62;60.20
62126;BME280;48112;53.282;6.150;2022-12-18T02:48:33;102874.38;;;13.62;60.22
62126;BME280;48112;53.282;6.150;2022-12-18T02:49:38;102883.31;;;13.62;60.70
62126;BME280;48112;53.282;6.150;2022-12-18T02:50:45;102884.13;;;13.63;60.33
62126;BME280;48112;53.282;6.150;2022-12-18T02:51:51;102891.16;;;13.64;58.57
62126;BME280;48112;53.282;6.150;2022-12-18T02:52:56;102887.63;;;13.63;58.04
62126;BME280;48112;53.282;6.150;2022-12-18T02:54:04;102887.31;;;13.65;59.00
62126;BME280;48112;53.282;6.150;2022-12-18T02:55:13;102895.47;;;13.65;58.41
62126;BME280;48112;53.282;6.150;2022-12-18T02:56:24;102897.88;;;13.66;59.06
62126;BME280;48112;53.282;6.150;2022-12-18T02:57:32;102898.69;;;13.67;59.02
62126;BME280;48112;53.282;6.150;2022-12-18T02:58:37;102908.41;;;13.68;58.00
62126;BME280;48112;53.282;6.150;2022-12-18T02:59:49;102903.00;;;13.68;57.81
62126;BME280;48112;53.282;6.150;2022-12-18T03:00:58;102913.53;;;13.69;57.80
62126;BME280;48112;53.282;6.150;2022-12-18T03:02:03;102884.47;;;13.70;60.78
62126;BME280;48112;53.282;6.150;2022-12-18T03:03:10;102887.66;;;13.72;59.95
62126;BME280;48112;53.282;6.150;2022-12-18T03:04:14;102888.47;;;13.72;61.42
62126;BME280;48112;53.282;6.150;2022-12-18T03:05:19;102886.56;;;13.73;60.34
62126;BME280;48112;53.282;6.150;2022-12-18T03:06:24;102882.75;;;13.74;61.94
62126;BME280;48112;53.282;6.150;2022-12-18T03:07:32;102883.53;;;13.74;62.08
62126;BME280;48112;53.282;6.150;2022-12-18T03:08:36;102889.78;;;13.75;62.15
62126;BME280;48112;53.282;6.150;2022-12-18T03:09:41;102893.28;;;13.75;62.03
62126;BME280;48112;53.282;6.150;2022-12-18T03:10:45;102885.94;;;13.76;63.35
62126;BME280;48112;53.282;6.150;2022-12-18T03:11:53;102886.75;;;13.76;63.94
62126;BME280;48112;53.282;6.150;2022-12-18T03:13:16;102878.63;;;13.76;63.51
62126;BME280;48112;53.282;6.150;2022-12-18T03:14:21;102877.50;;;13.77;63.74
62126;BME280;48112;53.282;6.150;2022-12-18T03:15:26;102882.59;;;13.79;63.87
62126;BME280;48112;53.282;6.150;2022-12-18T03:16:40;102876.38;;;13.78;64.48
62126;BME280;48112;53.282;6.150;2022-12-18T03:17:44;102883.41;;;13.79;64.25
62126;BME280;48112;53.282;6.150;2022-12-18T03:18:49;102871.75;;;13.79;64.72
62126;BME280;48112;53.282;6.150;2022-12-18T03:19:53;102874.47;;;13.79;64.49
62126;BME280;48112;53.282;6.150;2022-12-18T03:20:59;102877.19;;;13.79;64.50
62126;BME280;48112;53.282;6.150;2022-12-18T03:22:02;102868.72;;;13.80;64.72
62126;BME280;48112;53.282;6.150;2022-12-18T03:23:17;102875.75;;;13.81;65.38
62126;BME280;48112;53.282;6.150;2022-12-18T03:24:22;102868.72;;;13.80;65.20
62126;BME280;48112;53.282;6.150;2022-12-18T03:25:26;102877.66;;;13.81;63.27
62126;BME280;48112;53.282;6.150;2022-12-18T03:26:29;102883.09;;;13.81;62.91
62126;BME280;48112;53.282;6.150;2022-12-18T03:27:35;102878.44;;;13.81;62.30
62126;BME280;48112;53.282;6.150;2022-12-18T03:28:43;102876.53;;;13.82;61.93
62126;BME280;48112;53.282;6.150;2022-12-18T03:29:48;102874.97;;;13.81;61.81
62126;BME280;48112;53.282;6.150;2022-12-18T03:30:56;102877.66;;;13.81;61.84
62126;BME280;48112;53.282;6.150;2022-12-18T03:32:04;102874.97;;;13.81;63.23
62126;BME280;48112;53.282;6.150;2022-12-18T03:33:08;102870.31;;;13.81;64.26
62126;BME280;48112;53.282;6.150;2022-12-18T03:34:14;102860.25;;;13.82;64.65
62126;BME280;48112;53.282;6.150;2022-12-18T03:35:21;102862.97;;;13.82;64.32
62126;BME280;48112;53.282;6.150;2022-12-18T03:36:25;102864.09;;;13.81;64.57
62126;BME280;48112;53.282;6.150;2022-12-18T03:37:28;102870.31;;;13.81;64.74
62126;BME280;48112;53.282;6.150;2022-12-18T03:38:31;102866.81;;;13.81;64.50
62126;BME280;48112;53.282;6.150;2022-12-18T03:39:33;102872.25;;;13.81;64.72
62126;BME280;48112;53.282;6.150;2022-12-18T03:40:38;102874.97;;;13.81;64.62
62126;BME280;48112;53.282;6.150;2022-12-18T03:41:43;102871.44;;;13.80;64.77
62126;BME280;48112;53.282;6.150;2022-12-18T03:42:59;102878.75;;;13.80;64.88
62126;BME280;48112;53.282;6.150;2022-12-18T03:44:08;102876.88;;;13.80;65.19
62126;BME280;48112;53.282;6.150;2022-12-18T03:45:19;102881.47;;;13.80;64.76
62126;BME280;48112;53.282;6.150;2022-12-18T03:46:24;102878.00;;;13.79;64.51
62126;BME280;48112;53.282;6.150;2022-12-18T03:47:29;102882.59;;;13.79;65.16
62126;BME280;48112;53.282;6.150;2022-12-18T03:48:37;102875.59;;;13.78;64.47
62126;BME280;48112;53.282;6.150;2022-12-18T03:49:45;102881.00;;;13.78;63.67
62126;BME280;48112;53.282;6.150;2022-12-18T03:50:56;102884.50;;;13.78;63.81
62126;BME280;48112;53.282;6.150;2022-12-18T03:51:59;102881.00;;;13.78;64.31
62126;BME280;48112;53.282;6.150;2022-12-18T03:53:07;102873.97;;;13.77;64.27
62126;BME280;48112;53.282;6.150;2022-12-18T03:54:12;102877.81;;;13.76;64.33
62126;BME280;48112;53.282;6.150;2022-12-18T03:55:23;102883.22;;;13.76;63.90
62126;BME280;48112;53.282;6.150;2022-12-18T03:56:33;102882.75;;;13.74;63.73
62126;BME280;48112;53.282;6.150;2022-12-18T03:57:39;102880.81;;;13.74;63.20
62126;BME280;48112;53.282;6.150;2022-12-18T03:58:42;102878.44;;;13.73;62.52
62126;BME280;48112;53.282;6.150;2022-12-18T03:59:56;102876.81;;;13.72;62.83
62126;BME280;48112;53.282;6.150;2022-12-18T04:01:05;102882.25;;;13.72;62.72
62126;BME280;48112;53.282;6.150;2022-12-18T04:02:09;102882.88;;;13.69;62.39
62126;BME280;48112;53.282;6.150;2022-12-18T04:03:12;102878.25;;;13.69;62.93
62126;BME280;48112;53.282;6.150;2022-12-18T04:04:20;102881.28;;;13.68;63.24
62126;BME280;48112;53.282;6.150;2022-12-18T04:05:25;102882.41;;;13.67;63.08
62126;BME280;48112;53.282;6.150;2022-12-18T04:06:28;102880.47;;;13.67;63.46
62126;BME280;48112;53.282;6.150;2022-12-18T04:07:31;102890.53;;;13.67;63.21
62126;BME280;48112;53.282;6.150;2022-12-18T04:08:34;102878.06;;;13.66;62.99
62126;BME280;48112;53.282;6.150;2022-12-18T04:09:39;102887.81;;;13.67;63.39
62126;BME280;48112;53.282;6.150;2022-12-18T04:10:43;102888.91;;;13.66;63.52
62126;BME280;48112;53.282;6.150;2022-12-18T04:11:46;102888.91;;;13.66;62.74
62126;BME280;48112;53.282;6.150;2022-12-18T04:12:50;102890.03;;;13.65;63.20
62126;BME280;48112;53.282;6.150;2022-12-18T04:13:56;102890.34;;;13.63;62.88
62126;BME280;48112;53.282;6.150;2022-12-18T04:15:00;102884.94;;;13.63;63.06
62126;BME280;48112;53.282;6.150;2022-12-18T04:16:02;102898.81;;;13.62;63.22
62126;BME280;48112;53.282;6.150;2022-12-18T04:17:05;102894.97;;;13.63;63.04
62126;BME280;48112;53.282;6.150;2022-12-18T04:18:07;102887.13;;;13.61;62.84
62126;BME280;48112;53.282;6.150;2022-12-18T04:19:13;102877.09;;;13.62;63.78
62126;BME280;48112;53.282;6.150;2022-12-18T04:20:17;102884.13;;;13.63;63.54
62126;BME280;48112;53.282;6.150;2022-12-18T04:21:21;102877.09;;;13.62;64.02
62126;BME280;48112;53.282;6.150;2022-12-18T04:22:24;102889.53;;;13.63;63.51
62126;BME280;48112;53.282;6.150;2022-12-18T04:23:32;102890.66;;;13.62;62.21
62126;BME280;48112;53.282;6.150;2022-12-18T04:24:33;102884.13;;;13.63;62.15
62126;BME280;48112;53.282;6.150;2022-12-18T04:25:43;102887.94;;;13.62;61.16
62126;BME280;48112;53.282;6.150;2022-12-18T04:26:50;102886.81;;;13.63;62.08
62126;BME280;48112;53.282;6.150;2022-12-18T04:27:58;102875.97;;;13.63;62.83
62126;BME280;48112;53.282;6.150;2022-12-18T04:28:59;102875.97;;;13.63;62.61
62126;BME280;48112;53.282;6.150;2022-12-18T04:30:04;102883.03;;;13.64;62.33
62126;BME280;48112;53.282;6.150;2022-12-18T04:31:07;102882.72;;;13.65;62.99
62126;BME280;48112;53.282;6.150;2022-12-18T04:32:09;102876.47;;;13.65;63.48
62126;BME280;48112;53.282;6.150;2022-12-18T04:33:12;102871.03;;;13.65;63.18
62126;BME280;48112;53.282;6.150;2022-12-18T04:34:15;102879.19;;;13.65;62.91
62126;BME280;48112;53.282;6.150;2022-12-18T04:35:23;102876.47;;;13.65;62.47
62126;BME280;48112;53.282;6.150;2022-12-18T04:36:25;102871.84;;;13.65;63.06
62126;BME280;48112;53.282;6.150;2022-12-18T04:37:27;102875.34;;;13.66;62.85
62126;BME280;48112;53.282;6.150;2022-12-18T04:38:30;102878.88;;;13.66;62.32
62126;BME280;48112;53.282;6.150;2022-12-18T04:39:39;102877.28;;;13.65;62.53
62126;BME280;48112;53.282;6.150;2022-12-18T04:40:48;102883.50;;;13.66;62.06
62126;BME280;48112;53.282;6.150;2022-12-18T04:41:56;102886.19;;;13.66;62.32
62126;BME280;48112;53.282;6.150;2022-12-18T04:42:58;102884.31;;;13.66;61.82
62126;BME280;48112;53.282;6.150;2022-12-18T04:44:01;102883.50;;;13.66;62.39
62126;BME280;48112;53.282;6.150;2022-12-18T04:45:04;102890.03;;;13.65;62.09
62126;BME280;48112;53.282;6.150;2022-12-18T04:46:07;102889.22;;;13.64;61.91
62126;BME280;48112;53.282;6.150;2022-12-18T04:47:09;102893.56;;;13.65;61.86
62126;BME280;48112;53.282;6.150;2022-12-18T04:48:12;102897.38;;;13.64;62.03
62126;BME280;48112;53.282;6.150;2022-12-18T04:49:13;102900.91;;;13.65;62.19
62126;BME280;48112;53.282;6.150;2022-12-18T04:50:16;102893.56;;;13.65;62.11
62126;BME280;48112;53.282;6.150;2022-12-18T04:51:19;102890.03;;;13.65;62.22
62126;BME280;48112;53.282;6.150;2022-12-18T04:52:26;102887.31;;;13.65;61.99
62126;BME280;48112;53.282;6.150;2022-12-18T04:53:28;102892.75;;;13.65;62.13
62126;BME280;48112;53.282;6.150;2022-12-18T04:54:31;102892.75;;;13.65;61.97
62126;BME280;48112;53.282;6.150;2022-12-18T04:55:33;102890.03;;;13.65;61.83
62126;BME280;48112;53.282;6.150;2022-12-18T04:56:35;102889.22;;;13.64;62.19
62126;BME280;48112;53.282;6.150;2022-12-18T04:57:37;102880.31;;;13.64;61.96
62126;BME280;48112;53.282;6.150;2022-12-18T04:58:40;102887.31;;;13.65;61.83
62126;BME280;48112;53.282;6.150;2022-12-18T04:59:42;102887.31;;;13.65;61.03
62126;BME280;48112;53.282;6.150;2022-12-18T05:00:46;102891.94;;;13.64;60.99
62126;BME280;48112;53.282;6.150;2022-12-18T05:01:47;102896.59;;;13.64;61.48
62126;BME280;48112;53.282;6.150;2022-12-18T05:02:50;102900.09;;;13.64;61.26
62126;BME280;48112;53.282;6.150;2022-12-18T05:03:51;102905.50;;;13.64;61.25
62126;BME280;48112;53.282;6.150;2022-12-18T05:04:54;102898.19;;;13.65;61.25
62126;BME280;48112;53.282;6.150;2022-12-18T05:05:56;102898.19;;;13.65;61.14
62126;BME280;48112;53.282;6.150;2022-12-18T05:06:58;102902.03;;;13.64;61.02
62126;BME280;48112;53.282;6.150;2022-12-18T05:08:00;102898.19;;;13.65;60.92
62126;BME280;48112;53.282;6.150;2022-12-18T05:09:02;102904.75;;;13.64;60.98
62126;BME280;48112;53.282;6.150;2022-12-18T05:10:07;102912.88;;;13.64;60.60
62126;BME280;48112;53.282;6.150;2022-12-18T05:11:10;102910.94;;;13.64;61.03
62126;BME280;48112;53.282;6.150;2022-12-18T05:12:12;102903.63;;;13.65;60.94
62126;BME280;48112;53.282;6.150;2022-12-18T05:13:15;102903.63;;;13.65;61.26
62126;BME280;48112;53.282;6.150;2022-12-18T05:14:17;102900.09;;;13.64;60.82
62126;BME280;48112;53.282;6.150;2022-12-18T05:15:19;102907.44;;;13.64;61.27
62126;BME280;48112;53.282;6.150;2022-12-18T05:16:22;102902.81;;;13.64;61.15
62126;BME280;48112;53.282;6.150;2022-12-18T05:17:25;102899.31;;;13.64;61.30
62126;BME280;48112;53.282;6.150;2022-12-18T05:18:26;102898.19;;;13.65;61.29
62126;BME280;48112;53.282;6.150;2022-12-18T05:19:29;102902.50;;;13.66;61.35
62126;BME280;48112;53.282;6.150;2022-12-18T05:20:31;102894.34;;;13.66;61.52
62126;BME280;48112;53.282;6.150;2022-12-18T05:21:33;102895.47;;;13.65;61.57
62126;BME280;48112;53.282;6.150;2022-12-18T05:22:35;102895.16;;;13.66;61.52
62126;BME280;48112;53.282;6.150;2022-12-18T05:23:37;102899.78;;;13.66;61.32
62126;BME280;48112;53.282;6.150;2022-12-18T05:24:39;102903.63;;;13.65;61.19
62126;BME280;48112;53.282;6.150;2022-12-18T05:25:42;102894.34;;;13.66;61.36
62126;BME280;48112;53.282;6.150;2022-12-18T05:26:43;102902.50;;;13.66;60.88
62126;BME280;48112;53.282;6.150;2022-12-18T05:27:46;102902.50;;;13.66;60.64
62126;BME280;48112;53.282;6.150;2022-12-18T05:28:48;102893.56;;;13.65;60.07
62126;BME280;48112;53.282;6.150;2022-12-18T05:29:50;102912.56;;;13.65;60.30
62126;BME280;48112;53.282;6.150;2022-12-18T05:30:52;102909.53;;;13.67;60.70
62126;BME280;48112;53.282;6.150;2022-12-18T05:31:57;102907.91;;;13.66;60.87
62126;BME280;48112;53.282;6.150;2022-12-18T05:32:58;102921.50;;;13.66;60.69
62126;BME280;48112;53.282;6.150;2022-12-18T05:34:01;102920.41;;;13.67;60.34
62126;BME280;48112;53.282;6.150;2022-12-18T05:35:03;102920.41;;;13.67;60.80
62126;BME280;48112;53.282;6.150;2022-12-18T05:36:06;102928.53;;;13.67;60.32
62126;BME280;48112;53.282;6.150;2022-12-18T05:37:08;102923.91;;;13.67;60.23